createdAt,value
2022-11-05T00:22:12.812Z,29
2022-11-05T00:51:33.347Z,26
2022-11-05T01:20:59.591Z,25
2022-11-05T01:50:24.156Z,22
2022-11-05T02:19:45.887Z,22
2022-11-05T02:49:08.559Z,21
2022-11-05T03:18:14.415Z,22
2022-11-05T03:47:27.081Z,25
2022-11-05T04:16:50.627Z,22
2022-11-05T04:46:12.805Z,29
2022-11-05T05:15:38.110Z,30
2022-11-05T05:44:58.721Z,36
2022-11-05T06:14:14.591Z,37
2022-11-05T06:43:34.905Z,36
2022-11-05T07:12:47.733Z,35
2022-11-05T07:42:04.332Z,38
2022-11-05T08:11:15.112Z,44
2022-11-05T08:40:29.968Z,46
2022-11-05T09:09:50.641Z,48
2022-11-05T09:39:11.071Z,45
2022-11-05T10:08:29.180Z,40
2022-11-05T10:37:46.544Z,36
2022-11-05T11:07:01.850Z,33
2022-11-05T11:36:17.627Z,29
2022-11-05T12:05:17.344Z,32
2022-11-05T12:34:19.769Z,27
2022-11-05T13:03:34.130Z,28
2022-11-05T13:32:45.068Z,28
2022-11-05T14:02:03.218Z,21
2022-11-05T14:31:06.229Z,28
2022-11-05T15:00:15.589Z,26
2022-11-05T15:29:39.683Z,28
2022-11-05T15:59:00.645Z,32
2022-11-05T16:28:23.390Z,31
2022-11-05T16:57:41.646Z,40
2022-11-05T17:26:58.227Z,60
2022-11-05T17:56:20.179Z,63
2022-11-05T18:25:05.181Z,40
2022-11-05T18:54:21.737Z,38
2022-11-05T19:23:41.074Z,36
2022-11-05T19:53:03.043Z,34
2022-11-05T20:22:25.999Z,35
2022-11-05T20:51:42.219Z,35
2022-11-05T21:21:00.366Z,35
2022-11-05T21:50:11.399Z,34
2022-11-05T22:19:30.247Z,33
2022-11-05T22:48:49.858Z,31
2022-11-05T23:18:12.676Z,29
2022-11-05T23:47:14.101Z,28
